sensor_id;sensor_type;location;lat;lon;timestamp;temperature;humidity
29281;DHT22;25048;49.590;11.026;2023-05-10T00:02:00;14.20;99.90
29281;DHT22;25048;49.590;11.026;2023-05-10T00:04:28;14.10;99.90
29281;DHT22;25048;49.590;11.026;2023-05-10T00:06:56;14.10;99.90
29281;DHT22;25048;49.590;11.026;2023-05-10T00:09:23;14.10;99.90
29281;DHT22;25048;49.590;11.026;2023-05-10T00:11:51;14.00;99.90
29281;DHT22;25048;49.590;11.026;2023-05-10T00:14:18;13.90;99.90
29281;DHT22;25048;49.590;11.026;2023-05-10T00:16:46;13.90;99.90
29281;DHT22;25048;49.590;11.026;2023-05-10T00:19:13;13.90;99.90
29281;DHT22;25048;49.590;11.026;2023-05-10T00:21:41;13.80;99.90
29281;DHT22;25048;49.590;11.026;2023-05-10T00:24:08;13.70;99.90
29281;DHT22;25048;49.590;11.026;2023-05-10T00:26:36;13.60;99.90
29281;DHT22;25048;49.590;11.026;2023-05-10T00:29:03;13.60;99.90
29281;DHT22;25048;49.590;11.026;2023-05-10T00:31:31;13.40;99.90
29281;DHT22;25048;49.590;11.026;2023-05-10T00:33:58;13.40;99.90
29281;DHT22;25048;49.590;11.026;2023-05-10T00:36:26;13.30;99.90
29281;DHT22;25048;49.590;11.026;2023-05-10T00:38:54;13.30;99.90
29281;DHT22;25048;49.590;11.026;2023-05-10T00:41:21;13.20;99.90
29281;DHT22;25048;49.590;11.026;2023-05-10T00:43:49;13.10;99.90
29281;DHT22;25048;49.590;11.026;2023-05-10T00:46:16;13.00;99.90
29281;DHT22;25048;49.590;11.026;2023-05-10T00:48:45;12.90;99.90
29281;DHT22;25048;49.590;11.026;2023-05-10T00:51:13;12.80;99.90
29281;DHT22;25048;49.590;11.026;2023-05-10T00:53:41;12.80;99.90
29281;DHT22;25048;49.590;11.026;2023-05-10T00:56:08;12.70;99.90
29281;DHT22;25048;49.590;11.026;2023-05-10T00:58:36;12.60;99.90
29281;DHT22;25048;49.590;11.026;2023-05-10T01:01:05;12.50;99.90
29281;DHT22;25048;49.590;11.026;2023-05-10T01:03:34;12.50;99.90
29281;DHT22;25048;49.590;11.026;2023-05-10T01:06:02;12.50;99.90
29281;DHT22;25048;49.590;11.026;2023-05-10T01:08:30;12.40;99.90
29281;DHT22;25048;49.590;11.026;2023-05-10T01:10:58;12.40;99.90
29281;DHT22;25048;49.590;11.026;2023-05-10T01:13:33;12.30;99.90
29281;DHT22;25048;49.590;11.026;2023-05-10T01:16:02;12.20;99.90
29281;DHT22;25048;49.590;11.026;2023-05-10T01:18:31;12.20;99.90
29281;DHT22;25048;49.590;11.026;2023-05-10T01:23:45;12.10;99.90
29281;DHT22;25048;49.590;11.026;2023-05-10T01:26:25;12.10;99.90
29281;DHT22;25048;49.590;11.026;2023-05-10T01:34:27;12.00;99.90
29281;DHT22;25048;49.590;11.026;2023-05-10T01:37:06;12.10;99.90
29281;DHT22;25048;49.590;11.026;2023-05-10T01:42:25;12.10;99.90
29281;DHT22;25048;49.590;11.026;2023-05-10T01:45:02;12.00;99.90
29281;DHT22;25048;49.590;11.026;2023-05-10T01:47:50;12.10;99.90
29281;DHT22;25048;49.590;11.026;2023-05-10T01:50:22;12.00;99.90
29281;DHT22;25048;49.590;11.026;2023-05-10T01:52:51;12.00;99.90
29281;DHT22;25048;49.590;11.026;2023-05-10T01:55:20;12.00;99.90
29281;DHT22;25048;49.590;11.026;2023-05-10T01:57:56;12.10;99.90
29281;DHT22;25048;49.590;11.026;2023-05-10T02:00:20;12.10;99.90
29281;DHT22;25048;49.590;11.026;2023-05-10T02:02:48;12.10;99.90
29281;DHT22;25048;49.590;11.026;2023-05-10T02:05:17;12.10;99.90
29281;DHT22;25048;49.590;11.026;2023-05-10T02:07:46;12.10;99.90
29281;DHT22;25048;49.590;11.026;2023-05-10T02:10:15;12.10;99.90
29281;DHT22;25048;49.590;11.026;2023-05-10T02:12:44;12.10;99.90
29281;DHT22;25048;49.590;11.026;2023-05-10T02:15:17;12.20;99.90
29281;DHT22;25048;49.590;11.026;2023-05-10T02:17:44;12.20;99.90
29281;DHT22;25048;49.590;11.026;2023-05-10T02:20:14;12.20;99.90
29281;DHT22;25048;49.590;11.026;2023-05-10T02:22:43;12.20;99.90
29281;DHT22;25048;49.590;11.026;2023-05-10T02:25:14;12.30;99.90
29281;DHT22;25048;49.590;11.026;2023-05-10T02:27:44;12.30;99.90
29281;DHT22;25048;49.590;11.026;2023-05-10T02:30:11;12.30;99.90
29281;DHT22;25048;49.590;11.026;2023-05-10T02:32:40;12.30;99.90
29281;DHT22;25048;49.590;11.026;2023-05-10T02:35:09;12.30;99.90
29281;DHT22;25048;49.590;11.026;2023-05-10T02:37:37;12.40;99.90
29281;DHT22;25048;49.590;11.026;2023-05-10T02:40:06;12.40;99.90
29281;DHT22;25048;49.590;11.026;2023-05-10T02:42:37;12.40;99.90
29281;DHT22;25048;49.590;11.026;2023-05-10T02:45:12;12.40;99.90
29281;DHT22;25048;49.590;11.026;2023-05-10T02:47:36;12.40;99.90
29281;DHT22;25048;49.590;11.026;2023-05-10T02:50:03;12.40;99.90
29281;DHT22;25048;49.590;11.026;2023-05-10T02:52:40;12.50;99.90
29281;DHT22;25048;49.590;11.026;2023-05-10T02:55:05;12.50;99.90
29281;DHT22;25048;49.590;11.026;2023-05-10T02:57:35;12.50;99.90
29281;DHT22;25048;49.590;11.026;2023-05-10T03:00:05;12.50;99.90
29281;DHT22;25048;49.590;11.026;2023-05-10T03:02:33;12.50;99.90
29281;DHT22;25048;49.590;11.026;2023-05-10T03:05:01;12.50;99.90
29281;DHT22;25048;49.590;11.026;2023-05-10T03:07:30;12.60;99.90
29281;DHT22;25048;49.590;11.026;2023-05-10T03:09:57;12.70;99.90
29281;DHT22;25048;49.590;11.026;2023-05-10T03:13:05;12.80;99.90
29281;DHT22;25048;49.590;11.026;2023-05-10T03:16:32;12.90;99.90
29281;DHT22;25048;49.590;11.026;2023-05-10T03:18:18;13.00;99.90
29281;DHT22;25048;49.590;11.026;2023-05-10T03:20:48;13.10;99.90
29281;DHT22;25048;49.590;11.026;2023-05-10T03:25:48;13.10;99.90
29281;DHT22;25048;49.590;11.026;2023-05-10T03:28:18;13.10;99.90
29281;DHT22;25048;49.590;11.026;2023-05-10T03:30:46;13.10;99.90
29281;DHT22;25048;49.590;11.026;2023-05-10T03:33:14;13.10;99.90
29281;DHT22;25048;49.590;11.026;2023-05-10T03:35:41;13.10;99.90
29281;DHT22;25048;49.590;11.026;2023-05-10T03:38:11;13.10;99.90
29281;DHT22;25048;49.590;11.026;2023-05-10T03:40:39;13.00;99.90
29281;DHT22;25048;49.590;11.026;2023-05-10T03:43:07;13.00;99.90
29281;DHT22;25048;49.590;11.026;2023-05-10T03:45:34;13.00;99.90
29281;DHT22;25048;49.590;11.026;2023-05-10T03:48:02;13.10;99.90
29281;DHT22;25048;49.590;11.026;2023-05-10T03:50:29;13.10;99.90
29281;DHT22;25048;49.590;11.026;2023-05-10T03:52:57;13.00;99.90
29281;DHT22;25048;49.590;11.026;2023-05-10T03:55:24;13.00;99.90
29281;DHT22;25048;49.590;11.026;2023-05-10T03:57:52;13.00;99.90
29281;DHT22;25048;49.590;11.026;2023-05-10T04:00:20;13.10;99.90
29281;DHT22;25048;49.590;11.026;2023-05-10T04:02:48;13.10;99.90
29281;DHT22;25048;49.590;11.026;2023-05-10T04:05:15;13.10;99.90
29281;DHT22;25048;49.590;11.026;2023-05-10T04:07:43;13.10;99.90
29281;DHT22;25048;49.590;11.026;2023-05-10T04:10:11;13.10;99.90
29281;DHT22;25048;49.590;11.026;2023-05-10T04:12:38;13.20;99.90
29281;DHT22;25048;49.590;11.026;2023-05-10T04:15:06;13.10;99.90
29281;DHT22;25048;49.590;11.026;2023-05-10T04:17:34;13.10;99.90
29281;DHT22;25048;49.590;11.026;2023-05-10T04:20:02;13.10;99.90
29281;DHT22;25048;49.590;11.026;2023-05-10T04:22:30;13.20;99.90
29281;DHT22;25048;49.590;11.026;2023-05-10T04:24:57;13.20;99.90
29281;DHT22;25048;49.590;11.026;2023-05-10T04:27:25;13.20;99.90
29281;DHT22;25048;49.590;11.026;2023-05-10T04:29:52;13.20;99.90
29281;DHT22;25048;49.590;11.026;2023-05-10T04:32:20;13.20;99.90
29281;DHT22;25048;49.590;11.026;2023-05-10T04:34:47;13.20;99.90
29281;DHT22;25048;49.590;11.026;2023-05-10T04:37:15;13.20;99.90
29281;DHT22;25048;49.590;11.026;2023-05-10T04:39:42;13.20;99.90
29281;DHT22;25048;49.590;11.026;2023-05-10T04:42:10;13.20;99.90
29281;DHT22;25048;49.590;11.026;2023-05-10T04:44:38;13.20;99.90
29281;DHT22;25048;49.590;11.026;2023-05-10T04:47:06;13.20;99.90
29281;DHT22;25048;49.590;11.026;2023-05-10T04:49:33;13.10;99.90
29281;DHT22;25048;49.590;11.026;2023-05-10T04:52:01;13.10;99.90
29281;DHT22;25048;49.590;11.026;2023-05-10T04:54:28;13.20;99.90
29281;DHT22;25048;49.590;11.026;2023-05-10T04:56:55;13.20;99.90
29281;DHT22;25048;49.590;11.026;2023-05-10T04:59:23;13.30;99.90
29281;DHT22;25048;49.590;11.026;2023-05-10T05:01:50;13.20;99.90
29281;DHT22;25048;49.590;11.026;2023-05-10T05:04:18;13.20;99.90
29281;DHT22;25048;49.590;11.026;2023-05-10T05:06:45;13.30;99.90
29281;DHT22;25048;49.590;11.026;2023-05-10T05:09:13;13.20;99.90
29281;DHT22;25048;49.590;11.026;2023-05-10T05:11:40;13.20;99.90
29281;DHT22;25048;49.590;11.026;2023-05-10T05:14:08;13.20;99.90
29281;DHT22;25048;49.590;11.026;2023-05-10T05:16:35;13.20;99.90
29281;DHT22;25048;49.590;11.026;2023-05-10T05:19:03;13.20;99.90
29281;DHT22;25048;49.590;11.026;2023-05-10T05:21:30;13.30;99.90
29281;DHT22;25048;49.590;11.026;2023-05-10T05:23:59;13.30;99.90
29281;DHT22;25048;49.590;11.026;2023-05-10T05:26:27;13.40;99.90
29281;DHT22;25048;49.590;11.026;2023-05-10T05:28:54;13.40;99.90
29281;DHT22;25048;49.590;11.026;2023-05-10T05:31:22;13.50;99.90
29281;DHT22;25048;49.590;11.026;2023-05-10T05:33:49;13.60;99.90
29281;DHT22;25048;49.590;11.026;2023-05-10T05:36:17;13.70;99.90
29281;DHT22;25048;49.590;11.026;2023-05-10T05:38:44;13.80;99.90
29281;DHT22;25048;49.590;11.026;2023-05-10T05:41:12;13.90;99.90
29281;DHT22;25048;49.590;11.026;2023-05-10T05:43:40;13.90;99.90
29281;DHT22;25048;49.590;11.026;2023-05-10T05:46:07;14.00;99.90
29281;DHT22;25048;49.590;11.026;2023-05-10T05:48:34;14.00;99.90
29281;DHT22;25048;49.590;11.026;2023-05-10T05:51:02;14.20;99.90
29281;DHT22;25048;49.590;11.026;2023-05-10T05:53:30;14.20;99.90
29281;DHT22;25048;49.590;11.026;2023-05-10T05:55:58;14.30;99.90
29281;DHT22;25048;49.590;11.026;2023-05-10T05:58:26;14.30;99.90
29281;DHT22;25048;49.590;11.026;2023-05-10T06:00:54;14.30;99.90
29281;DHT22;25048;49.590;11.026;2023-05-10T06:03:21;14.40;99.90
29281;DHT22;25048;49.590;11.026;2023-05-10T06:05:49;14.50;99.90
29281;DHT22;25048;49.590;11.026;2023-05-10T06:08:17;14.60;99.90
29281;DHT22;25048;49.590;11.026;2023-05-10T06:10:44;14.60;99.90
29281;DHT22;25048;49.590;11.026;2023-05-10T06:13:12;14.70;99.90
29281;DHT22;25048;49.590;11.026;2023-05-10T06:15:39;14.70;99.90
29281;DHT22;25048;49.590;11.026;2023-05-10T06:18:07;14.80;99.90
29281;DHT22;25048;49.590;11.026;2023-05-10T06:20:34;14.80;99.90
29281;DHT22;25048;49.590;11.026;2023-05-10T06:23:02;14.90;99.90
29281;DHT22;25048;49.590;11.026;2023-05-10T06:25:29;14.80;99.90
29281;DHT22;25048;49.590;11.026;2023-05-10T06:27:57;14.70;99.90
29281;DHT22;25048;49.590;11.026;2023-05-10T06:30:26;14.70;99.90
29281;DHT22;25048;49.590;11.026;2023-05-10T06:32:55;14.70;99.90
29281;DHT22;25048;49.590;11.026;2023-05-10T06:35:22;14.80;99.90
29281;DHT22;25048;49.590;11.026;2023-05-10T06:37:50;14.90;99.90
29281;DHT22;25048;49.590;11.026;2023-05-10T06:40:18;15.00;99.90
29281;DHT22;25048;49.590;11.026;2023-05-10T06:42:47;15.20;99.90
29281;DHT22;25048;49.590;11.026;2023-05-10T06:45:15;15.40;99.90
29281;DHT22;25048;49.590;11.026;2023-05-10T06:47:42;15.60;99.90
29281;DHT22;25048;49.590;11.026;2023-05-10T06:50:10;15.70;99.90
29281;DHT22;25048;49.590;11.026;2023-05-10T06:52:38;15.90;99.90
29281;DHT22;25048;49.590;11.026;2023-05-10T06:55:06;15.90;99.90
29281;DHT22;25048;49.590;11.026;2023-05-10T06:57:35;16.00;99.90
29281;DHT22;25048;49.590;11.026;2023-05-10T07:00:03;16.00;99.90
29281;DHT22;25048;49.590;11.026;2023-05-10T07:02:31;16.20;99.90
29281;DHT22;25048;49.590;11.026;2023-05-10T07:04:58;16.30;99.90
29281;DHT22;25048;49.590;11.026;2023-05-10T07:07:26;16.50;99.90
29281;DHT22;25048;49.590;11.026;2023-05-10T07:09:53;16.50;99.90
29281;DHT22;25048;49.590;11.026;2023-05-10T07:12:23;16.70;99.90
29281;DHT22;25048;49.590;11.026;2023-05-10T07:14:50;16.90;99.90
29281;DHT22;25048;49.590;11.026;2023-05-10T07:17:18;17.20;99.90
29281;DHT22;25048;49.590;11.026;2023-05-10T07:19:46;17.40;99.90
29281;DHT22;25048;49.590;11.026;2023-05-10T07:22:14;17.60;99.90
29281;DHT22;25048;49.590;11.026;2023-05-10T07:24:42;17.80;99.90
29281;DHT22;25048;49.590;11.026;2023-05-10T07:27:09;17.90;99.90
29281;DHT22;25048;49.590;11.026;2023-05-10T07:29:37;18.10;99.90
29281;DHT22;25048;49.590;11.026;2023-05-10T07:32:05;18.20;99.90
29281;DHT22;25048;49.590;11.026;2023-05-10T07:34:32;18.50;99.90
29281;DHT22;25048;49.590;11.026;2023-05-10T07:37:01;18.60;99.90
29281;DHT22;25048;49.590;11.026;2023-05-10T07:39:28;18.60;99.90
29281;DHT22;25048;49.590;11.026;2023-05-10T07:41:56;18.60;99.90
29281;DHT22;25048;49.590;11.026;2023-05-10T07:44:23;18.50;99.90
29281;DHT22;25048;49.590;11.026;2023-05-10T07:46:51;18.30;99.90
29281;DHT22;25048;49.590;11.026;2023-05-10T07:49:19;18.10;99.90
29281;DHT22;25048;49.590;11.026;2023-05-10T07:51:46;17.90;99.90
29281;DHT22;25048;49.590;11.026;2023-05-10T07:54:14;17.60;99.90
29281;DHT22;25048;49.590;11.026;2023-05-10T07:56:42;17.50;99.90
29281;DHT22;25048;49.590;11.026;2023-05-10T08:01:59;17.00;99.90
29281;DHT22;25048;49.590;11.026;2023-05-10T08:04:27;16.80;99.90
29281;DHT22;25048;49.590;11.026;2023-05-10T08:06:55;16.60;99.90
29281;DHT22;25048;49.590;11.026;2023-05-10T08:09:22;16.50;99.90
29281;DHT22;25048;49.590;11.026;2023-05-10T08:11:50;16.40;99.90
29281;DHT22;25048;49.590;11.026;2023-05-10T08:14:18;16.40;99.90
29281;DHT22;25048;49.590;11.026;2023-05-10T08:16:46;16.40;99.90
29281;DHT22;25048;49.590;11.026;2023-05-10T08:19:13;16.40;99.90
29281;DHT22;25048;49.590;11.026;2023-05-10T08:21:42;16.40;99.90
29281;DHT22;25048;49.590;11.026;2023-05-10T08:24:10;16.50;99.90
29281;DHT22;25048;49.590;11.026;2023-05-10T08:26:38;16.70;99.90
29281;DHT22;25048;49.590;11.026;2023-05-10T08:29:06;16.90;99.90
29281;DHT22;25048;49.590;11.026;2023-05-10T08:31:33;17.10;99.90
29281;DHT22;25048;49.590;11.026;2023-05-10T08:34:01;17.30;99.90
29281;DHT22;25048;49.590;11.026;2023-05-10T08:36:28;17.50;99.90
29281;DHT22;25048;49.590;11.026;2023-05-10T08:38:56;17.60;99.90
29281;DHT22;25048;49.590;11.026;2023-05-10T08:41:24;17.80;99.90
29281;DHT22;25048;49.590;11.026;2023-05-10T08:43:54;17.90;99.90
29281;DHT22;25048;49.590;11.026;2023-05-10T08:46:22;17.90;99.90
29281;DHT22;25048;49.590;11.026;2023-05-10T08:48:51;17.60;99.90
29281;DHT22;25048;49.590;11.026;2023-05-10T08:51:23;17.40;99.90
29281;DHT22;25048;49.590;11.026;2023-05-10T08:53:49;17.10;99.90
29281;DHT22;25048;49.590;11.026;2023-05-10T08:56:16;16.90;99.90
29281;DHT22;25048;49.590;11.026;2023-05-10T08:58:44;16.80;99.90
29281;DHT22;25048;49.590;11.026;2023-05-10T09:01:13;16.80;99.90
29281;DHT22;25048;49.590;11.026;2023-05-10T09:03:41;16.70;99.90
29281;DHT22;25048;49.590;11.026;2023-05-10T09:06:08;16.80;99.90
29281;DHT22;25048;49.590;11.026;2023-05-10T09:08:37;16.70;99.90
29281;DHT22;25048;49.590;11.026;2023-05-10T09:11:05;16.50;99.90
29281;DHT22;25048;49.590;11.026;2023-05-10T09:13:33;16.40;99.90
29281;DHT22;25048;49.590;11.026;2023-05-10T09:16:03;16.60;99.90
29281;DHT22;25048;49.590;11.026;2023-05-10T09:18:31;17.00;99.90
29281;DHT22;25048;49.590;11.026;2023-05-10T09:20:58;17.50;99.90
29281;DHT22;25048;49.590;11.026;2023-05-10T09:23:26;18.20;99.90
29281;DHT22;25048;49.590;11.026;2023-05-10T09:26:05;18.80;99.90
29281;DHT22;25048;49.590;11.026;2023-05-10T09:28:34;19.40;99.90
29281;DHT22;25048;49.590;11.026;2023-05-10T09:31:01;19.70;99.90
29281;DHT22;25048;49.590;11.026;2023-05-10T09:33:29;19.80;99.90
29281;DHT22;25048;49.590;11.026;2023-05-10T09:36:06;20.00;99.90
29281;DHT22;25048;49.590;11.026;2023-05-10T09:38:31;20.10;99.90
29281;DHT22;25048;49.590;11.026;2023-05-10T09:41:00;20.30;99.90
29281;DHT22;25048;49.590;11.026;2023-05-10T09:43:37;20.70;99.90
29281;DHT22;25048;49.590;11.026;2023-05-10T09:45:59;20.70;99.90
29281;DHT22;25048;49.590;11.026;2023-05-10T09:48:28;20.40;99.90
29281;DHT22;25048;49.590;11.026;2023-05-10T09:50:59;20.00;99.90
29281;DHT22;25048;49.590;11.026;2023-05-10T09:53:27;19.60;99.90
29281;DHT22;25048;49.590;11.026;2023-05-10T09:55:54;19.30;99.90
29281;DHT22;25048;49.590;11.026;2023-05-10T09:58:21;19.10;99.90
29281;DHT22;25048;49.590;11.026;2023-05-10T10:00:49;19.00;99.90
29281;DHT22;25048;49.590;11.026;2023-05-10T10:03:21;19.00;99.90
29281;DHT22;25048;49.590;11.026;2023-05-10T10:05:50;19.10;99.90
29281;DHT22;25048;49.590;11.026;2023-05-10T10:08:19;19.20;99.90
29281;DHT22;25048;49.590;11.026;2023-05-10T10:10:47;19.30;99.90
29281;DHT22;25048;49.590;11.026;2023-05-10T10:13:15;19.70;99.90
29281;DHT22;25048;49.590;11.026;2023-05-10T10:15:43;20.10;99.90
29281;DHT22;25048;49.590;11.026;2023-05-10T10:18:15;20.30;99.90
29281;DHT22;25048;49.590;11.026;2023-05-10T10:20:42;20.50;99.90
29281;DHT22;25048;49.590;11.026;2023-05-10T10:23:10;20.60;99.90
29281;DHT22;25048;49.590;11.026;2023-05-10T10:25:38;20.80;99.90
29281;DHT22;25048;49.590;11.026;2023-05-10T10:28:10;21.20;99.90
29281;DHT22;25048;49.590;11.026;2023-05-10T10:30:45;21.40;99.90
29281;DHT22;25048;49.590;11.026;2023-05-10T10:35:53;22.10;99.90
29281;DHT22;25048;49.590;11.026;2023-05-10T10:38:21;22.20;99.90
29281;DHT22;25048;49.590;11.026;2023-05-10T10:41:06;22.30;99.90
29281;DHT22;25048;49.590;11.026;2023-05-10T10:43:31;22.40;99.90
29281;DHT22;25048;49.590;11.026;2023-05-10T10:46:16;22.30;99.90
29281;DHT22;25048;49.590;11.026;2023-05-10T10:51:19;21.40;99.90
29281;DHT22;25048;49.590;11.026;2023-05-10T10:53:48;21.10;99.90
29281;DHT22;25048;49.590;11.026;2023-05-10T10:56:15;20.90;99.90
29281;DHT22;25048;49.590;11.026;2023-05-10T10:58:49;20.80;99.90
29281;DHT22;25048;49.590;11.026;2023-05-10T11:01:19;20.70;99.90
29281;DHT22;25048;49.590;11.026;2023-05-10T11:09:14;20.40;99.90
29281;DHT22;25048;49.590;11.026;2023-05-10T11:11:54;20.40;99.90
29281;DHT22;25048;49.590;11.026;2023-05-10T11:14:22;20.30;99.90
29281;DHT22;25048;49.590;11.026;2023-05-10T11:16:50;20.30;99.90
29281;DHT22;25048;49.590;11.026;2023-05-10T11:19:18;20.40;99.90
29281;DHT22;25048;49.590;11.026;2023-05-10T11:21:50;20.60;99.90
29281;DHT22;25048;49.590;11.026;2023-05-10T11:24:22;20.80;99.90
29281;DHT22;25048;49.590;11.026;2023-05-10T11:26:51;20.70;99.90
29281;DHT22;25048;49.590;11.026;2023-05-10T11:29:18;20.70;99.90
29281;DHT22;25048;49.590;11.026;2023-05-10T11:31:47;20.70;99.90
29281;DHT22;25048;49.590;11.026;2023-05-10T11:34:29;20.50;99.90
29281;DHT22;25048;49.590;11.026;2023-05-10T11:36:57;20.40;99.90
29281;DHT22;25048;49.590;11.026;2023-05-10T11:39:29;20.20;99.90
29281;DHT22;25048;49.590;11.026;2023-05-10T11:41:58;20.00;99.90
29281;DHT22;25048;49.590;11.026;2023-05-10T11:44:30;19.90;99.90
29281;DHT22;25048;49.590;11.026;2023-05-10T11:47:01;20.00;99.90
29281;DHT22;25048;49.590;11.026;2023-05-10T11:49:29;20.00;99.90
29281;DHT22;25048;49.590;11.026;2023-05-10T11:52:07;20.10;99.90
29281;DHT22;25048;49.590;11.026;2023-05-10T11:54:35;19.90;99.90
29281;DHT22;25048;49.590;11.026;2023-05-10T11:57:02;20.00;99.90
29281;DHT22;25048;49.590;11.026;2023-05-10T11:59:30;20.30;99.90
29281;DHT22;25048;49.590;11.026;2023-05-10T12:01:58;20.50;99.90
29281;DHT22;25048;49.590;11.026;2023-05-10T12:04:26;20.80;99.90
29281;DHT22;25048;49.590;11.026;2023-05-10T12:06:55;21.00;99.90
29281;DHT22;25048;49.590;11.026;2023-05-10T12:09:23;21.30;99.90
29281;DHT22;25048;49.590;11.026;2023-05-10T12:11:54;21.60;99.90
29281;DHT22;25048;49.590;11.026;2023-05-10T12:14:22;21.60;99.90
29281;DHT22;25048;49.590;11.026;2023-05-10T12:16:50;21.90;99.90
29281;DHT22;25048;49.590;11.026;2023-05-10T12:19:19;22.20;99.90
29281;DHT22;25048;49.590;11.026;2023-05-10T12:21:50;22.40;99.90
29281;DHT22;25048;49.590;11.026;2023-05-10T12:24:17;22.20;99.90
29281;DHT22;25048;49.590;11.026;2023-05-10T12:26:48;22.00;99.90
29281;DHT22;25048;49.590;11.026;2023-05-10T12:29:20;21.70;99.90
29281;DHT22;25048;49.590;11.026;2023-05-10T12:31:53;21.70;99.90
29281;DHT22;25048;49.590;11.026;2023-05-10T12:34:26;21.50;99.90
29281;DHT22;25048;49.590;11.026;2023-05-10T12:36:54;21.30;99.90
29281;DHT22;25048;49.590;11.026;2023-05-10T12:39:22;21.20;99.90
29281;DHT22;25048;49.590;11.026;2023-05-10T12:41:49;21.10;99.90
29281;DHT22;25048;49.590;11.026;2023-05-10T12:44:18;21.00;99.90
29281;DHT22;25048;49.590;11.026;2023-05-10T12:46:45;21.10;99.90
29281;DHT22;25048;49.590;11.026;2023-05-10T12:49:13;21.00;99.90
29281;DHT22;25048;49.590;11.026;2023-05-10T12:51:40;21.00;99.90
29281;DHT22;25048;49.590;11.026;2023-05-10T12:54:08;20.80;99.90
29281;DHT22;25048;49.590;11.026;2023-05-10T12:56:36;20.70;99.90
29281;DHT22;25048;49.590;11.026;2023-05-10T12:59:03;20.70;99.90
29281;DHT22;25048;49.590;11.026;2023-05-10T13:01:31;20.50;99.90
29281;DHT22;25048;49.590;11.026;2023-05-10T13:03:58;20.50;99.90
29281;DHT22;25048;49.590;11.026;2023-05-10T13:06:26;20.40;99.90
29281;DHT22;25048;49.590;11.026;2023-05-10T13:08:54;20.30;99.90
29281;DHT22;25048;49.590;11.026;2023-05-10T13:11:21;20.10;99.90
29281;DHT22;25048;49.590;11.026;2023-05-10T13:13:49;19.90;99.90
29281;DHT22;25048;49.590;11.026;2023-05-10T13:16:16;19.70;99.90
29281;DHT22;25048;49.590;11.026;2023-05-10T13:18:44;19.60;99.90
29281;DHT22;25048;49.590;11.026;2023-05-10T13:21:11;19.40;99.90
29281;DHT22;25048;49.590;11.026;2023-05-10T13:23:39;19.30;99.90
29281;DHT22;25048;49.590;11.026;2023-05-10T13:26:06;19.00;99.90
29281;DHT22;25048;49.590;11.026;2023-05-10T13:28:33;18.60;99.90
29281;DHT22;25048;49.590;11.026;2023-05-10T13:31:01;18.30;99.90
29281;DHT22;25048;49.590;11.026;2023-05-10T13:33:29;18.20;99.90
29281;DHT22;25048;49.590;11.026;2023-05-10T13:35:56;18.10;99.90
29281;DHT22;25048;49.590;11.026;2023-05-10T13:38:24;18.10;99.90
29281;DHT22;25048;49.590;11.026;2023-05-10T13:40:52;18.20;99.90
29281;DHT22;25048;49.590;11.026;2023-05-10T13:43:19;18.30;99.90
29281;DHT22;25048;49.590;11.026;2023-05-10T13:45:47;18.40;99.90
29281;DHT22;25048;49.590;11.026;2023-05-10T13:48:14;18.50;99.90
29281;DHT22;25048;49.590;11.026;2023-05-10T13:50:43;18.50;99.90
29281;DHT22;25048;49.590;11.026;2023-05-10T13:53:11;18.50;99.90
29281;DHT22;25048;49.590;11.026;2023-05-10T13:55:39;18.50;99.90
29281;DHT22;25048;49.590;11.026;2023-05-10T13:58:06;18.60;99.90
29281;DHT22;25048;49.590;11.026;2023-05-10T14:00:34;18.60;99.90
29281;DHT22;25048;49.590;11.026;2023-05-10T14:03:02;18.50;99.90
29281;DHT22;25048;49.590;11.026;2023-05-10T14:05:31;18.40;99.90
29281;DHT22;25048;49.590;11.026;2023-05-10T14:07:59;18.30;99.90
29281;DHT22;25048;49.590;11.026;2023-05-10T14:10:26;18.10;99.90
29281;DHT22;25048;49.590;11.026;2023-05-10T14:12:54;17.90;99.90
29281;DHT22;25048;49.590;11.026;2023-05-10T14:15:21;17.60;99.90
29281;DHT22;25048;49.590;11.026;2023-05-10T14:17:49;17.20;99.90
29281;DHT22;25048;49.590;11.026;2023-05-10T14:20:16;16.70;99.90
29281;DHT22;25048;49.590;11.026;2023-05-10T14:22:44;16.30;99.90
29281;DHT22;25048;49.590;11.026;2023-05-10T14:25:12;15.90;99.90
29281;DHT22;25048;49.590;11.026;2023-05-10T14:27:39;15.70;99.90
29281;DHT22;25048;49.590;11.026;2023-05-10T14:30:07;15.50;99.90
29281;DHT22;25048;49.590;11.026;2023-05-10T14:32:35;15.40;99.90
29281;DHT22;25048;49.590;11.026;2023-05-10T14:35:03;15.30;99.90
29281;DHT22;25048;49.590;11.026;2023-05-10T14:37:32;15.30;99.90
29281;DHT22;25048;49.590;11.026;2023-05-10T14:39:59;15.30;99.90
29281;DHT22;25048;49.590;11.026;2023-05-10T14:42:27;15.30;99.90
29281;DHT22;25048;49.590;11.026;2023-05-10T14:44:55;15.30;99.90
29281;DHT22;25048;49.590;11.026;2023-05-10T14:47:22;15.20;99.90
29281;DHT22;25048;49.590;11.026;2023-05-10T14:49:50;15.20;99.90
29281;DHT22;25048;49.590;11.026;2023-05-10T14:52:17;15.20;99.90
29281;DHT22;25048;49.590;11.026;2023-05-10T14:54:45;15.20;99.90
29281;DHT22;25048;49.590;11.026;2023-05-10T14:57:13;15.30;99.90
29281;DHT22;25048;49.590;11.026;2023-05-10T14:59:40;15.40;99.90
29281;DHT22;25048;49.590;11.026;2023-05-10T15:02:08;15.50;99.90
29281;DHT22;25048;49.590;11.026;2023-05-10T15:04:36;15.50;99.90
29281;DHT22;25048;49.590;11.026;2023-05-10T15:07:04;15.40;99.90
29281;DHT22;25048;49.590;11.026;2023-05-10T15:09:33;15.20;99.90
29281;DHT22;25048;49.590;11.026;2023-05-10T15:12:01;14.90;99.90
29281;DHT22;25048;49.590;11.026;2023-05-10T15:14:28;14.60;99.90
29281;DHT22;25048;49.590;11.026;2023-05-10T15:16:56;14.30;99.90
29281;DHT22;25048;49.590;11.026;2023-05-10T15:19:27;14.10;99.90
29281;DHT22;25048;49.590;11.026;2023-05-10T15:21:55;13.90;99.90
29281;DHT22;25048;49.590;11.026;2023-05-10T15:24:23;13.80;99.90
29281;DHT22;25048;49.590;11.026;2023-05-10T15:26:50;13.70;99.90
29281;DHT22;25048;49.590;11.026;2023-05-10T15:29:18;13.50;99.90
29281;DHT22;25048;49.590;11.026;2023-05-10T15:31:50;13.50;99.90
29281;DHT22;25048;49.590;11.026;2023-05-10T15:34:21;13.40;99.90
29281;DHT22;25048;49.590;11.026;2023-05-10T15:36:48;13.40;99.90
29281;DHT22;25048;49.590;11.026;2023-05-10T15:39:16;13.40;99.90
29281;DHT22;25048;49.590;11.026;2023-05-10T15:41:43;13.50;99.90
29281;DHT22;25048;49.590;11.026;2023-05-10T15:44:11;13.50;99.90
29281;DHT22;25048;49.590;11.026;2023-05-10T15:46:39;13.50;99.90
29281;DHT22;25048;49.590;11.026;2023-05-10T15:49:06;13.50;99.90
29281;DHT22;25048;49.590;11.026;2023-05-10T15:51:34;13.50;99.90